Bob Baker Memorial Airport
PAIK : now visible

Aeroporto :











RITROVATECI SU...

 
LOGIN :

Iscrizione | Disclaimer

   EN    FR    IT 

 









Sommario :    VFR   VFR Marginale   IFR   IFR Intensivo   IFR Molto Intensivo
Visibilità : 
Base nubi : 
>= 8 km
>= 3000ft
5 / 8 km
1000 / 3000 ft
1500m / 5 km
500 / 1000 ft
800 / 1500m
200 / 500 ft
< 800m
< 200 ft
Simboli :   Temporali  Nebbia  Neve Forte  Precipitazioni Forti  Vento > 20 kt






- Altitudine del aeroporto : 166 ft
- Codice IATA : IAN


PAIK - Bob Baker Memorial

ULTIMO METAR :
  • 280420Z AUTO 06003KT 9SM -SN SCT007 BKN012 OVC090 00/M01 A2967 RMK AO2 RAE11SNB11 P0000 FZRANO

METARs OBSOLETI :
  • 280356Z AUTO 07004KT 10SM -RA BKN011 OVC017 01/M01 A2967 RMK AO2 RAB14 SLP051 P0000 T00061006 FZRANO
  • 280333Z AUTO 03004KT 10SM -RA BKN019 BKN055 01/M02 A2967 RMK AO2 RAB14 P0000 FZRANO
  • 280256Z AUTO 02004KT 10SM OVC055 01/M02 A2967 RMK AO2 SLP051 T00111017 56004 FZRANO
  • 280156Z AUTO 05004KT 10SM SCT047 SCT060 02/M02 A2968 RMK AO2 SLP051 T00171017 FZRANO

TAF N/A
FIR PAZA / America del Nord



MetMap, La meteo Aeronautica in un colpo d'occhio ! - Copyright ORBIFLY Dicembre 2007 - Disclaimer

ORBIFLY MET'MAP TEAM :

Programmazione e sviluppo : Alexandra Zaïnal
Concezione : Baudouin d'Aumeries
Aiuto per la programmazione : Marc-Olivier Méhu
Supporto tecnico e logistico : Manuel Goepfert
Aiuto per la traduzione : Arnaldo La Scala

Contatto : metmap@orbifly.com




FONTI E CREDITI :

   NOAA       Earth
Advisory